Balkhash Airport
UAAH : now visible

Airfield :











YOU CAN JOIN US ON...

 
LOGIN :

Register | Disclaimer

   EN    FR    IT 

 









Legend :    VFR   Marginal VFR   IFR   Intensive IFR   Very Intensive IFR
Visi :
Ceiling :
>= 8 km
>= 3000ft
5 to 8 km
1000 to 3000 ft
1500m to 5 km
500 to 1000 ft
800 to 1500m
200 to 500 ft
< 800m
< 200 ft
Symbols :   Thunderstorms  Fog  Heavy snow  Heavy precipitations  Wind > 20 kt






- Airport Elevation : 1446 ft
- IATA code : BXH


UAAH - Balkhash

CURRENT METAR :
  • 010330Z 07010MPS CAVOK 04/M06 Q1028 R05/0///60 NOSIG RMK QFE733/0977

EXPIRED METARs :
  • 010300Z 07010MPS 9999 FEW033CB 03/M06 Q1028 R05/0///60 NOSIG RMK QFE733/0977
  • 010230Z 07009MPS 9999 FEW033CB 03/M06 Q1028 R05/0///60 NOSIG RMK QFE733/0977
  • 010200Z 06009MPS 9999 FEW033CB 02/M06 Q1027 R05/0///60 NOSIG RMK QFE733/0977
  • 010130Z 06010MPS 9999 SCT033CB 02/M06 Q1027 R05/0///60 NOSIG RMK QFE733/0977
  • 010100Z 06009MPS 9999 SCT033CB 02/M06 Q1027 R05/0///60 NOSIG RMK QFE733/0977

TAF TAF UAAH
Valid from the 01 at 03:00 until the 01 at 12:00 UTC


010200Z 0103/0112 06008G13MPS 9999 SCT030
UAAA FIR / Asia



MET'MAP, your aeronautical weather chart ! - Copyright ORBIFLY December 2007 - Disclaimer

ORBIFLY MET'MAP TEAM :

Programming & Development : Alexandra Zaïnal
Concept & original design : Baudouin d'Aumeries
Assistance for programming : Marc-Olivier Méhu
Technical & hardware support : Manuel Goepfert

Contact : metmap@orbifly.com




SOURCES & CREDITS :

   NOAA       Earth
Advisory